WCH weather

Chaitén Airport
Chaiten, Los Lagos Region, Chile

Public forecast

Using degrees Celsius for public forecast. Weather courtesy of forecast.io.

Current aviation weather report (METAR) for Chaitén Airport

Retrieved 2019/10/21 01:00 UTC (57 minutes ago):

SCTN 210100Z AUTO 01011KT //// R/////// // SCT023 BKN037 OVC047 09/07 Q1018

Aviation forecast (TAF) for Chaitén Airport

Forecast is more than 12 hours old.

Retrieved 2018/09/16 12:33 UTC (1 year ago):

TAF SPJL 161124Z 1612/1712 VRB04KT 9999 FEW020LVA0551 161131 GG KWBCYMYX MPZZMAMX 161130 SCSCYZYX SPCH03 SCTN 161130 SPECI SCTN 161130Z 36020G31KT +RA SCT013 OVC017 11/09 Q1009